sensor_id;sensor_type;location;lat;lon;timestamp;P1;durP1;ratioP1;P2;durP2;ratioP2
44764;SDS011;30484;52.382;5.260;2023-08-07T00:00:36;19.40;;;3.20;;
44764;SDS011;30484;52.382;5.260;2023-08-07T00:03:06;19.98;;;2.92;;
44764;SDS011;30484;52.382;5.260;2023-08-07T00:05:35;19.77;;;3.30;;
44764;SDS011;30484;52.382;5.260;2023-08-07T00:08:03;14.65;;;2.80;;
44764;SDS011;30484;52.382;5.260;2023-08-07T00:10:32;17.25;;;3.28;;
44764;SDS011;30484;52.382;5.260;2023-08-07T00:13:01;23.88;;;3.88;;
44764;SDS011;30484;52.382;5.260;2023-08-07T00:15:30;16.05;;;3.05;;
44764;SDS011;30484;52.382;5.260;2023-08-07T00:17:59;19.05;;;2.83;;
44764;SDS011;30484;52.382;5.260;2023-08-07T00:20:29;19.88;;;3.00;;
44764;SDS011;30484;52.382;5.260;2023-08-07T00:22:57;19.75;;;3.00;;
44764;SDS011;30484;52.382;5.260;2023-08-07T00:25:26;18.60;;;2.65;;
44764;SDS011;30484;52.382;5.260;2023-08-07T00:27:54;20.90;;;3.08;;
44764;SDS011;30484;52.382;5.260;2023-08-07T00:30:23;22.60;;;3.17;;
44764;SDS011;30484;52.382;5.260;2023-08-07T00:32:51;23.75;;;3.80;;
44764;SDS011;30484;52.382;5.260;2023-08-07T00:35:19;30.98;;;3.22;;
44764;SDS011;30484;52.382;5.260;2023-08-07T00:37:49;22.02;;;3.60;;
44764;SDS011;30484;52.382;5.260;2023-08-07T00:40:18;13.55;;;2.90;;
44764;SDS011;30484;52.382;5.260;2023-08-07T00:42:46;16.55;;;2.88;;
44764;SDS011;30484;52.382;5.260;2023-08-07T00:45:14;19.55;;;2.83;;
44764;SDS011;30484;52.382;5.260;2023-08-07T00:47:44;17.10;;;3.35;;
44764;SDS011;30484;52.382;5.260;2023-08-07T00:50:12;21.10;;;3.88;;
44764;SDS011;30484;52.382;5.260;2023-08-07T00:52:41;14.68;;;2.88;;
44764;SDS011;30484;52.382;5.260;2023-08-07T00:55:10;20.98;;;3.40;;
44764;SDS011;30484;52.382;5.260;2023-08-07T00:57:39;18.05;;;3.28;;
44764;SDS011;30484;52.382;5.260;2023-08-07T01:00:08;16.63;;;3.10;;
44764;SDS011;30484;52.382;5.260;2023-08-07T01:02:37;18.20;;;3.53;;
44764;SDS011;30484;52.382;5.260;2023-08-07T01:05:05;18.48;;;3.38;;
44764;SDS011;30484;52.382;5.260;2023-08-07T01:07:34;19.67;;;3.03;;
44764;SDS011;30484;52.382;5.260;2023-08-07T01:10:02;16.77;;;2.95;;
44764;SDS011;30484;52.382;5.260;2023-08-07T01:12:36;25.83;;;3.83;;
44764;SDS011;30484;52.382;5.260;2023-08-07T01:15:09;14.88;;;2.92;;
44764;SDS011;30484;52.382;5.260;2023-08-07T01:17:41;15.75;;;2.75;;
44764;SDS011;30484;52.382;5.260;2023-08-07T01:20:10;17.55;;;3.35;;
44764;SDS011;30484;52.382;5.260;2023-08-07T01:22:40;18.27;;;2.65;;
44764;SDS011;30484;52.382;5.260;2023-08-07T01:25:08;16.30;;;2.50;;
44764;SDS011;30484;52.382;5.260;2023-08-07T01:27:37;16.45;;;2.85;;
44764;SDS011;30484;52.382;5.260;2023-08-07T01:30:12;13.45;;;2.63;;
44764;SDS011;30484;52.382;5.260;2023-08-07T01:32:47;12.57;;;2.25;;
44764;SDS011;30484;52.382;5.260;2023-08-07T01:35:22;14.82;;;3.00;;
44764;SDS011;30484;52.382;5.260;2023-08-07T01:37:54;13.38;;;2.60;;
44764;SDS011;30484;52.382;5.260;2023-08-07T01:40:24;13.20;;;2.72;;
44764;SDS011;30484;52.382;5.260;2023-08-07T01:42:52;16.15;;;2.75;;
44764;SDS011;30484;52.382;5.260;2023-08-07T01:45:23;18.65;;;3.13;;
44764;SDS011;30484;52.382;5.260;2023-08-07T01:47:52;13.75;;;3.03;;
44764;SDS011;30484;52.382;5.260;2023-08-07T01:50:21;18.55;;;3.30;;
44764;SDS011;30484;52.382;5.260;2023-08-07T01:52:51;18.00;;;3.40;;
44764;SDS011;30484;52.382;5.260;2023-08-07T01:55:20;20.15;;;3.10;;
44764;SDS011;30484;52.382;5.260;2023-08-07T01:57:50;21.65;;;3.42;;
44764;SDS011;30484;52.382;5.260;2023-08-07T02:00:18;20.05;;;3.13;;
44764;SDS011;30484;52.382;5.260;2023-08-07T02:02:47;16.27;;;3.13;;
44764;SDS011;30484;52.382;5.260;2023-08-07T02:05:15;19.67;;;3.00;;
44764;SDS011;30484;52.382;5.260;2023-08-07T02:07:44;19.73;;;3.55;;
44764;SDS011;30484;52.382;5.260;2023-08-07T02:10:12;18.02;;;2.83;;
44764;SDS011;30484;52.382;5.260;2023-08-07T02:12:42;19.50;;;3.50;;
44764;SDS011;30484;52.382;5.260;2023-08-07T02:15:10;22.08;;;3.70;;
44764;SDS011;30484;52.382;5.260;2023-08-07T02:17:38;20.55;;;2.95;;
44764;SDS011;30484;52.382;5.260;2023-08-07T02:20:08;16.92;;;3.10;;
44764;SDS011;30484;52.382;5.260;2023-08-07T02:22:38;17.25;;;2.95;;
44764;SDS011;30484;52.382;5.260;2023-08-07T02:25:06;15.40;;;3.20;;
44764;SDS011;30484;52.382;5.260;2023-08-07T02:27:35;13.18;;;2.88;;
44764;SDS011;30484;52.382;5.260;2023-08-07T02:30:05;16.75;;;2.67;;
44764;SDS011;30484;52.382;5.260;2023-08-07T02:32:34;17.13;;;3.35;;
44764;SDS011;30484;52.382;5.260;2023-08-07T02:35:03;7.85;;;2.35;;
44764;SDS011;30484;52.382;5.260;2023-08-07T02:37:31;18.10;;;2.90;;
44764;SDS011;30484;52.382;5.260;2023-08-07T02:40:00;17.70;;;2.80;;
44764;SDS011;30484;52.382;5.260;2023-08-07T02:42:30;11.10;;;2.70;;
44764;SDS011;30484;52.382;5.260;2023-08-07T02:44:58;15.10;;;2.83;;
44764;SDS011;30484;52.382;5.260;2023-08-07T02:47:28;18.13;;;3.10;;
44764;SDS011;30484;52.382;5.260;2023-08-07T02:49:56;16.90;;;2.78;;
44764;SDS011;30484;52.382;5.260;2023-08-07T02:52:26;10.30;;;2.50;;
44764;SDS011;30484;52.382;5.260;2023-08-07T02:54:55;12.27;;;2.85;;
44764;SDS011;30484;52.382;5.260;2023-08-07T02:57:23;14.52;;;3.03;;
44764;SDS011;30484;52.382;5.260;2023-08-07T02:59:52;11.20;;;2.70;;
44764;SDS011;30484;52.382;5.260;2023-08-07T03:02:23;15.88;;;2.53;;
44764;SDS011;30484;52.382;5.260;2023-08-07T03:04:53;10.32;;;2.60;;
44764;SDS011;30484;52.382;5.260;2023-08-07T03:07:22;15.45;;;3.30;;
44764;SDS011;30484;52.382;5.260;2023-08-07T03:09:50;22.35;;;3.13;;
44764;SDS011;30484;52.382;5.260;2023-08-07T03:12:18;16.33;;;3.05;;
44764;SDS011;30484;52.382;5.260;2023-08-07T03:14:46;15.70;;;3.70;;
44764;SDS011;30484;52.382;5.260;2023-08-07T03:17:15;18.15;;;3.38;;
44764;SDS011;30484;52.382;5.260;2023-08-07T03:19:43;18.30;;;3.38;;
44764;SDS011;30484;52.382;5.260;2023-08-07T03:22:13;20.23;;;3.90;;
44764;SDS011;30484;52.382;5.260;2023-08-07T03:24:41;20.85;;;4.10;;
44764;SDS011;30484;52.382;5.260;2023-08-07T03:27:14;18.48;;;3.70;;
44764;SDS011;30484;52.382;5.260;2023-08-07T03:29:42;19.58;;;3.83;;
44764;SDS011;30484;52.382;5.260;2023-08-07T03:32:11;20.23;;;3.60;;
44764;SDS011;30484;52.382;5.260;2023-08-07T03:34:40;22.60;;;4.07;;
44764;SDS011;30484;52.382;5.260;2023-08-07T03:37:08;20.00;;;4.68;;
44764;SDS011;30484;52.382;5.260;2023-08-07T03:39:37;20.02;;;4.03;;
44764;SDS011;30484;52.382;5.260;2023-08-07T03:42:06;23.05;;;4.28;;
44764;SDS011;30484;52.382;5.260;2023-08-07T03:44:34;26.92;;;5.05;;
44764;SDS011;30484;52.382;5.260;2023-08-07T03:47:03;28.25;;;4.47;;
44764;SDS011;30484;52.382;5.260;2023-08-07T03:49:31;19.58;;;4.10;;
44764;SDS011;30484;52.382;5.260;2023-08-07T03:52:00;24.48;;;4.90;;
44764;SDS011;30484;52.382;5.260;2023-08-07T03:54:28;15.70;;;4.60;;
44764;SDS011;30484;52.382;5.260;2023-08-07T03:56:58;19.90;;;4.10;;
44764;SDS011;30484;52.382;5.260;2023-08-07T03:59:26;21.48;;;4.50;;
44764;SDS011;30484;52.382;5.260;2023-08-07T04:01:54;26.45;;;5.65;;
44764;SDS011;30484;52.382;5.260;2023-08-07T04:04:23;23.67;;;5.05;;
44764;SDS011;30484;52.382;5.260;2023-08-07T04:06:51;23.10;;;5.35;;
44764;SDS011;30484;52.382;5.260;2023-08-07T04:09:20;26.17;;;4.85;;
44764;SDS011;30484;52.382;5.260;2023-08-07T04:11:48;21.05;;;4.93;;
44764;SDS011;30484;52.382;5.260;2023-08-07T04:14:18;27.65;;;4.65;;
44764;SDS011;30484;52.382;5.260;2023-08-07T04:16:46;26.67;;;4.97;;
44764;SDS011;30484;52.382;5.260;2023-08-07T04:19:14;26.10;;;4.78;;
44764;SDS011;30484;52.382;5.260;2023-08-07T04:21:43;27.63;;;5.40;;
44764;SDS011;30484;52.382;5.260;2023-08-07T04:24:20;22.13;;;4.60;;
44764;SDS011;30484;52.382;5.260;2023-08-07T04:26:48;21.67;;;5.85;;
44764;SDS011;30484;52.382;5.260;2023-08-07T04:29:17;23.75;;;4.60;;
44764;SDS011;30484;52.382;5.260;2023-08-07T04:31:55;23.23;;;4.68;;
44764;SDS011;30484;52.382;5.260;2023-08-07T04:34:23;25.33;;;4.07;;
44764;SDS011;30484;52.382;5.260;2023-08-07T04:36:51;19.83;;;4.45;;
44764;SDS011;30484;52.382;5.260;2023-08-07T04:39:20;24.58;;;4.63;;
44764;SDS011;30484;52.382;5.260;2023-08-07T04:41:48;22.85;;;4.10;;
44764;SDS011;30484;52.382;5.260;2023-08-07T04:44:18;17.38;;;4.32;;
44764;SDS011;30484;52.382;5.260;2023-08-07T04:46:47;18.13;;;4.13;;
44764;SDS011;30484;52.382;5.260;2023-08-07T04:49:15;17.67;;;3.63;;
44764;SDS011;30484;52.382;5.260;2023-08-07T04:51:43;18.77;;;4.35;;
44764;SDS011;30484;52.382;5.260;2023-08-07T04:54:11;17.05;;;4.32;;
44764;SDS011;30484;52.382;5.260;2023-08-07T04:56:39;17.55;;;4.00;;
44764;SDS011;30484;52.382;5.260;2023-08-07T04:59:12;17.67;;;4.18;;
44764;SDS011;30484;52.382;5.260;2023-08-07T05:01:42;12.40;;;3.58;;
44764;SDS011;30484;52.382;5.260;2023-08-07T05:04:13;18.42;;;4.03;;
44764;SDS011;30484;52.382;5.260;2023-08-07T05:06:41;19.98;;;4.13;;
44764;SDS011;30484;52.382;5.260;2023-08-07T05:09:15;18.02;;;4.10;;
44764;SDS011;30484;52.382;5.260;2023-08-07T05:11:43;18.73;;;4.63;;
44764;SDS011;30484;52.382;5.260;2023-08-07T05:14:17;20.15;;;4.13;;
44764;SDS011;30484;52.382;5.260;2023-08-07T05:16:47;23.55;;;5.05;;
44764;SDS011;30484;52.382;5.260;2023-08-07T05:19:16;27.20;;;5.10;;
44764;SDS011;30484;52.382;5.260;2023-08-07T05:21:44;24.27;;;5.30;;
44764;SDS011;30484;52.382;5.260;2023-08-07T05:24:16;30.70;;;6.18;;
44764;SDS011;30484;52.382;5.260;2023-08-07T05:26:44;28.30;;;5.82;;
44764;SDS011;30484;52.382;5.260;2023-08-07T05:29:13;24.27;;;5.03;;
44764;SDS011;30484;52.382;5.260;2023-08-07T05:31:44;23.98;;;4.63;;
44764;SDS011;30484;52.382;5.260;2023-08-07T05:34:13;19.05;;;4.82;;
44764;SDS011;30484;52.382;5.260;2023-08-07T05:36:41;23.17;;;5.10;;
44764;SDS011;30484;52.382;5.260;2023-08-07T05:39:10;22.90;;;5.10;;
44764;SDS011;30484;52.382;5.260;2023-08-07T05:41:41;25.88;;;4.88;;
44764;SDS011;30484;52.382;5.260;2023-08-07T05:44:12;28.67;;;4.55;;
44764;SDS011;30484;52.382;5.260;2023-08-07T05:46:40;28.17;;;5.07;;
44764;SDS011;30484;52.382;5.260;2023-08-07T05:49:08;31.35;;;4.43;;
44764;SDS011;30484;52.382;5.260;2023-08-07T05:51:38;23.98;;;4.75;;
44764;SDS011;30484;52.382;5.260;2023-08-07T05:54:06;18.48;;;3.80;;
44764;SDS011;30484;52.382;5.260;2023-08-07T05:56:35;18.05;;;4.35;;
44764;SDS011;30484;52.382;5.260;2023-08-07T05:59:04;31.13;;;4.05;;
44764;SDS011;30484;52.382;5.260;2023-08-07T06:01:39;15.10;;;3.90;;
44764;SDS011;30484;52.382;5.260;2023-08-07T06:04:20;15.02;;;3.97;;
44764;SDS011;30484;52.382;5.260;2023-08-07T06:06:50;20.70;;;3.78;;
44764;SDS011;30484;52.382;5.260;2023-08-07T06:09:22;17.23;;;3.50;;
44764;SDS011;30484;52.382;5.260;2023-08-07T06:11:50;17.40;;;3.90;;
44764;SDS011;30484;52.382;5.260;2023-08-07T06:14:19;20.52;;;3.58;;
44764;SDS011;30484;52.382;5.260;2023-08-07T06:16:47;16.20;;;3.05;;
44764;SDS011;30484;52.382;5.260;2023-08-07T06:19:16;19.38;;;3.55;;
44764;SDS011;30484;52.382;5.260;2023-08-07T06:21:58;20.60;;;3.63;;
44764;SDS011;30484;52.382;5.260;2023-08-07T06:24:27;23.17;;;4.20;;
44764;SDS011;30484;52.382;5.260;2023-08-07T06:26:56;16.33;;;3.75;;
44764;SDS011;30484;52.382;5.260;2023-08-07T06:29:24;21.27;;;3.92;;
44764;SDS011;30484;52.382;5.260;2023-08-07T06:31:56;20.77;;;4.07;;
44764;SDS011;30484;52.382;5.260;2023-08-07T06:34:29;18.90;;;3.97;;
44764;SDS011;30484;52.382;5.260;2023-08-07T06:37:01;17.00;;;3.67;;
44764;SDS011;30484;52.382;5.260;2023-08-07T06:39:29;16.80;;;3.42;;
44764;SDS011;30484;52.382;5.260;2023-08-07T06:42:00;29.45;;;3.50;;
44764;SDS011;30484;52.382;5.260;2023-08-07T06:44:29;21.20;;;3.47;;
44764;SDS011;30484;52.382;5.260;2023-08-07T06:46:57;19.60;;;3.70;;
44764;SDS011;30484;52.382;5.260;2023-08-07T06:49:32;21.33;;;3.72;;
44764;SDS011;30484;52.382;5.260;2023-08-07T06:52:03;20.35;;;4.70;;
44764;SDS011;30484;52.382;5.260;2023-08-07T06:54:37;23.02;;;3.47;;
44764;SDS011;30484;52.382;5.260;2023-08-07T06:57:06;20.95;;;3.42;;
44764;SDS011;30484;52.382;5.260;2023-08-07T06:59:37;21.55;;;4.25;;
44764;SDS011;30484;52.382;5.260;2023-08-07T07:02:08;24.48;;;4.05;;
44764;SDS011;30484;52.382;5.260;2023-08-07T07:04:40;17.65;;;3.83;;
44764;SDS011;30484;52.382;5.260;2023-08-07T07:07:09;15.82;;;4.03;;
44764;SDS011;30484;52.382;5.260;2023-08-07T07:09:37;20.30;;;4.22;;
44764;SDS011;30484;52.382;5.260;2023-08-07T07:12:06;22.38;;;4.57;;
44764;SDS011;30484;52.382;5.260;2023-08-07T07:14:34;21.23;;;4.40;;
44764;SDS011;30484;52.382;5.260;2023-08-07T07:17:04;20.48;;;4.32;;
44764;SDS011;30484;52.382;5.260;2023-08-07T07:19:37;21.75;;;4.80;;
44764;SDS011;30484;52.382;5.260;2023-08-07T07:22:05;18.45;;;4.20;;
44764;SDS011;30484;52.382;5.260;2023-08-07T07:24:40;19.25;;;4.25;;
44764;SDS011;30484;52.382;5.260;2023-08-07T07:27:08;19.40;;;4.30;;
44764;SDS011;30484;52.382;5.260;2023-08-07T07:29:36;22.45;;;4.75;;
44764;SDS011;30484;52.382;5.260;2023-08-07T07:32:07;26.60;;;4.45;;
44764;SDS011;30484;52.382;5.260;2023-08-07T07:34:36;20.42;;;4.38;;
44764;SDS011;30484;52.382;5.260;2023-08-07T07:37:05;20.05;;;4.35;;
44764;SDS011;30484;52.382;5.260;2023-08-07T07:39:38;23.00;;;4.47;;
44764;SDS011;30484;52.382;5.260;2023-08-07T07:42:09;21.55;;;4.18;;
44764;SDS011;30484;52.382;5.260;2023-08-07T07:44:37;22.98;;;4.30;;
44764;SDS011;30484;52.382;5.260;2023-08-07T07:47:07;17.38;;;3.70;;
44764;SDS011;30484;52.382;5.260;2023-08-07T07:49:39;18.95;;;3.85;;
44764;SDS011;30484;52.382;5.260;2023-08-07T07:52:12;19.92;;;4.13;;
44764;SDS011;30484;52.382;5.260;2023-08-07T07:54:42;16.23;;;3.50;;
44764;SDS011;30484;52.382;5.260;2023-08-07T07:57:11;18.70;;;3.72;;
44764;SDS011;30484;52.382;5.260;2023-08-07T07:59:45;18.17;;;3.42;;
44764;SDS011;30484;52.382;5.260;2023-08-07T08:04:43;22.98;;;4.35;;
44764;SDS011;30484;52.382;5.260;2023-08-07T08:07:12;19.40;;;3.03;;
44764;SDS011;30484;52.382;5.260;2023-08-07T08:09:42;13.95;;;2.47;;
44764;SDS011;30484;52.382;5.260;2023-08-07T08:12:10;12.00;;;2.80;;
44764;SDS011;30484;52.382;5.260;2023-08-07T08:14:39;14.73;;;2.60;;
44764;SDS011;30484;52.382;5.260;2023-08-07T08:17:22;13.80;;;2.53;;
44764;SDS011;30484;52.382;5.260;2023-08-07T08:19:51;12.30;;;2.50;;
44764;SDS011;30484;52.382;5.260;2023-08-07T08:22:19;13.38;;;2.67;;
44764;SDS011;30484;52.382;5.260;2023-08-07T08:24:50;9.65;;;2.22;;
44764;SDS011;30484;52.382;5.260;2023-08-07T08:27:18;10.70;;;2.22;;
44764;SDS011;30484;52.382;5.260;2023-08-07T08:29:48;13.43;;;2.25;;
44764;SDS011;30484;52.382;5.260;2023-08-07T08:32:18;11.20;;;2.45;;
44764;SDS011;30484;52.382;5.260;2023-08-07T08:34:50;8.65;;;2.40;;
44764;SDS011;30484;52.382;5.260;2023-08-07T08:37:18;9.60;;;2.63;;
44764;SDS011;30484;52.382;5.260;2023-08-07T08:39:47;9.30;;;2.42;;
44764;SDS011;30484;52.382;5.260;2023-08-07T08:42:17;20.35;;;2.58;;
44764;SDS011;30484;52.382;5.260;2023-08-07T08:44:51;13.82;;;2.60;;
44764;SDS011;30484;52.382;5.260;2023-08-07T08:47:20;11.65;;;2.65;;
44764;SDS011;30484;52.382;5.260;2023-08-07T08:49:51;6.55;;;2.22;;
44764;SDS011;30484;52.382;5.260;2023-08-07T08:52:29;10.27;;;2.45;;
44764;SDS011;30484;52.382;5.260;2023-08-07T08:55:08;10.60;;;2.45;;
44764;SDS011;30484;52.382;5.260;2023-08-07T08:57:39;9.63;;;2.17;;
44764;SDS011;30484;52.382;5.260;2023-08-07T09:00:08;11.18;;;2.30;;
44764;SDS011;30484;52.382;5.260;2023-08-07T09:02:51;9.50;;;2.58;;
44764;SDS011;30484;52.382;5.260;2023-08-07T09:05:20;10.52;;;2.05;;
44764;SDS011;30484;52.382;5.260;2023-08-07T09:07:49;18.70;;;2.95;;
44764;SDS011;30484;52.382;5.260;2023-08-07T09:10:17;10.27;;;2.33;;
44764;SDS011;30484;52.382;5.260;2023-08-07T09:12:50;9.20;;;2.40;;
44764;SDS011;30484;52.382;5.260;2023-08-07T09:15:31;12.43;;;2.70;;
44764;SDS011;30484;52.382;5.260;2023-08-07T09:18:00;9.52;;;2.10;;
44764;SDS011;30484;52.382;5.260;2023-08-07T09:20:30;12.02;;;2.30;;
44764;SDS011;30484;52.382;5.260;2023-08-07T09:23:06;12.60;;;2.63;;
44764;SDS011;30484;52.382;5.260;2023-08-07T09:25:35;14.50;;;2.90;;
44764;SDS011;30484;52.382;5.260;2023-08-07T09:28:07;12.40;;;2.40;;
44764;SDS011;30484;52.382;5.260;2023-08-07T09:30:36;15.50;;;3.00;;
44764;SDS011;30484;52.382;5.260;2023-08-07T09:33:06;11.13;;;2.55;;
44764;SDS011;30484;52.382;5.260;2023-08-07T09:35:43;17.15;;;3.85;;
44764;SDS011;30484;52.382;5.260;2023-08-07T09:38:13;13.15;;;3.05;;
44764;SDS011;30484;52.382;5.260;2023-08-07T09:40:42;16.35;;;2.80;;
44764;SDS011;30484;52.382;5.260;2023-08-07T09:43:11;10.48;;;2.33;;
44764;SDS011;30484;52.382;5.260;2023-08-07T09:45:51;12.98;;;2.90;;
44764;SDS011;30484;52.382;5.260;2023-08-07T09:48:22;11.80;;;2.67;;
44764;SDS011;30484;52.382;5.260;2023-08-07T09:50:53;10.43;;;2.40;;
44764;SDS011;30484;52.382;5.260;2023-08-07T09:53:24;12.85;;;2.60;;
44764;SDS011;30484;52.382;5.260;2023-08-07T09:55:59;18.17;;;2.55;;
44764;SDS011;30484;52.382;5.260;2023-08-07T09:58:29;13.25;;;2.90;;
44764;SDS011;30484;52.382;5.260;2023-08-07T10:00:58;16.63;;;2.95;;
44764;SDS011;30484;52.382;5.260;2023-08-07T10:03:28;12.68;;;2.60;;
44764;SDS011;30484;52.382;5.260;2023-08-07T10:06:04;15.50;;;4.05;;
44764;SDS011;30484;52.382;5.260;2023-08-07T10:08:32;14.85;;;3.03;;
44764;SDS011;30484;52.382;5.260;2023-08-07T10:11:02;11.40;;;2.70;;
44764;SDS011;30484;52.382;5.260;2023-08-07T10:13:33;15.60;;;2.60;;
44764;SDS011;30484;52.382;5.260;2023-08-07T10:16:08;8.10;;;2.50;;
44764;SDS011;30484;52.382;5.260;2023-08-07T10:18:38;9.52;;;2.47;;
44764;SDS011;30484;52.382;5.260;2023-08-07T10:21:07;11.27;;;2.63;;
44764;SDS011;30484;52.382;5.260;2023-08-07T10:23:43;12.88;;;2.63;;
44764;SDS011;30484;52.382;5.260;2023-08-07T10:26:25;12.75;;;2.60;;
44764;SDS011;30484;52.382;5.260;2023-08-07T10:29:02;12.13;;;2.88;;
44764;SDS011;30484;52.382;5.260;2023-08-07T10:31:34;9.73;;;2.50;;
44764;SDS011;30484;52.382;5.260;2023-08-07T10:34:15;13.77;;;2.95;;
44764;SDS011;30484;52.382;5.260;2023-08-07T10:36:49;14.25;;;2.95;;
44764;SDS011;30484;52.382;5.260;2023-08-07T10:39:17;14.43;;;2.92;;
44764;SDS011;30484;52.382;5.260;2023-08-07T10:41:46;15.60;;;2.90;;
44764;SDS011;30484;52.382;5.260;2023-08-07T10:44:24;9.90;;;2.65;;
44764;SDS011;30484;52.382;5.260;2023-08-07T10:46:53;13.02;;;3.25;;
44764;SDS011;30484;52.382;5.260;2023-08-07T10:49:35;8.60;;;2.75;;
44764;SDS011;30484;52.382;5.260;2023-08-07T10:52:07;15.00;;;3.40;;
44764;SDS011;30484;52.382;5.260;2023-08-07T10:54:37;11.48;;;2.55;;
44764;SDS011;30484;52.382;5.260;2023-08-07T10:57:12;11.77;;;2.95;;
44764;SDS011;30484;52.382;5.260;2023-08-07T10:59:48;12.63;;;3.25;;
44764;SDS011;30484;52.382;5.260;2023-08-07T11:02:23;11.35;;;2.83;;
44764;SDS011;30484;52.382;5.260;2023-08-07T11:04:55;8.82;;;2.50;;
44764;SDS011;30484;52.382;5.260;2023-08-07T11:07:24;11.48;;;2.10;;
44764;SDS011;30484;52.382;5.260;2023-08-07T11:10:09;8.23;;;2.55;;
44764;SDS011;30484;52.382;5.260;2023-08-07T11:12:48;12.50;;;2.60;;
44764;SDS011;30484;52.382;5.260;2023-08-07T11:15:18;8.20;;;2.20;;
44764;SDS011;30484;52.382;5.260;2023-08-07T11:17:47;5.15;;;1.95;;
44764;SDS011;30484;52.382;5.260;2023-08-07T11:20:15;8.35;;;2.55;;
44764;SDS011;30484;52.382;5.260;2023-08-07T11:22:43;10.85;;;2.28;;
44764;SDS011;30484;52.382;5.260;2023-08-07T11:25:12;6.90;;;2.08;;
44764;SDS011;30484;52.382;5.260;2023-08-07T11:27:43;12.40;;;2.50;;
44764;SDS011;30484;52.382;5.260;2023-08-07T11:30:12;9.45;;;2.42;;
44764;SDS011;30484;52.382;5.260;2023-08-07T11:32:42;9.75;;;2.40;;
44764;SDS011;30484;52.382;5.260;2023-08-07T11:35:10;6.13;;;2.08;;
44764;SDS011;30484;52.382;5.260;2023-08-07T11:37:45;4.63;;;1.80;;
44764;SDS011;30484;52.382;5.260;2023-08-07T11:40:14;10.50;;;2.30;;
44764;SDS011;30484;52.382;5.260;2023-08-07T11:42:48;11.38;;;1.83;;
44764;SDS011;30484;52.382;5.260;2023-08-07T11:45:16;9.50;;;2.10;;
44764;SDS011;30484;52.382;5.260;2023-08-07T11:47:46;7.05;;;1.98;;
44764;SDS011;30484;52.382;5.260;2023-08-07T11:50:14;5.63;;;2.00;;
44764;SDS011;30484;52.382;5.260;2023-08-07T11:52:43;9.18;;;2.10;;
44764;SDS011;30484;52.382;5.260;2023-08-07T11:55:24;8.73;;;1.90;;
44764;SDS011;30484;52.382;5.260;2023-08-07T11:57:53;7.28;;;2.15;;
44764;SDS011;30484;52.382;5.260;2023-08-07T12:00:24;7.32;;;2.20;;
44764;SDS011;30484;52.382;5.260;2023-08-07T12:03:04;5.18;;;2.05;;
44764;SDS011;30484;52.382;5.260;2023-08-07T12:05:52;6.43;;;2.10;;
44764;SDS011;30484;52.382;5.260;2023-08-07T12:08:23;14.85;;;2.35;;
44764;SDS011;30484;52.382;5.260;2023-08-07T12:10:56;8.38;;;2.05;;
44764;SDS011;30484;52.382;5.260;2023-08-07T12:13:24;13.60;;;2.40;;
44764;SDS011;30484;52.382;5.260;2023-08-07T12:15:53;7.35;;;1.90;;
44764;SDS011;30484;52.382;5.260;2023-08-07T12:18:26;10.00;;;2.20;;
44764;SDS011;30484;52.382;5.260;2023-08-07T12:21:07;9.80;;;2.00;;
44764;SDS011;30484;52.382;5.260;2023-08-07T12:26:15;8.38;;;1.80;;
44764;SDS011;30484;52.382;5.260;2023-08-07T12:28:46;6.10;;;1.88;;
44764;SDS011;30484;52.382;5.260;2023-08-07T12:31:15;8.35;;;2.22;;
44764;SDS011;30484;52.382;5.260;2023-08-07T12:33:45;5.35;;;2.08;;
44764;SDS011;30484;52.382;5.260;2023-08-07T12:36:14;10.73;;;2.60;;
44764;SDS011;30484;52.382;5.260;2023-08-07T12:38:46;9.32;;;2.30;;
44764;SDS011;30484;52.382;5.260;2023-08-07T12:41:15;7.38;;;2.50;;
44764;SDS011;30484;52.382;5.260;2023-08-07T12:43:52;7.18;;;1.92;;
44764;SDS011;30484;52.382;5.260;2023-08-07T12:46:20;9.70;;;1.80;;
44764;SDS011;30484;52.382;5.260;2023-08-07T12:48:53;8.88;;;1.98;;
44764;SDS011;30484;52.382;5.260;2023-08-07T12:51:26;7.35;;;2.10;;
44764;SDS011;30484;52.382;5.260;2023-08-07T12:53:57;7.93;;;1.80;;
44764;SDS011;30484;52.382;5.260;2023-08-07T12:56:25;4.57;;;1.60;;
44764;SDS011;30484;52.382;5.260;2023-08-07T12:58:53;7.80;;;1.98;;
44764;SDS011;30484;52.382;5.260;2023-08-07T13:01:22;7.13;;;1.70;;
44764;SDS011;30484;52.382;5.260;2023-08-07T13:03:58;11.23;;;3.28;;
44764;SDS011;30484;52.382;5.260;2023-08-07T13:06:26;5.57;;;2.20;;
44764;SDS011;30484;52.382;5.260;2023-08-07T13:08:55;4.75;;;2.10;;
44764;SDS011;30484;52.382;5.260;2023-08-07T13:11:23;4.47;;;1.83;;
44764;SDS011;30484;52.382;5.260;2023-08-07T13:13:52;7.07;;;1.77;;
44764;SDS011;30484;52.382;5.260;2023-08-07T13:16:20;6.57;;;1.98;;
44764;SDS011;30484;52.382;5.260;2023-08-07T13:18:48;4.93;;;1.88;;
44764;SDS011;30484;52.382;5.260;2023-08-07T13:21:18;7.47;;;1.92;;
44764;SDS011;30484;52.382;5.260;2023-08-07T13:23:50;8.93;;;2.00;;
44764;SDS011;30484;52.382;5.260;2023-08-07T13:26:24;5.93;;;1.55;;
44764;SDS011;30484;52.382;5.260;2023-08-07T13:28:52;6.95;;;1.77;;
44764;SDS011;30484;52.382;5.260;2023-08-07T13:31:21;4.93;;;1.90;;
44764;SDS011;30484;52.382;5.260;2023-08-07T13:33:53;5.35;;;1.80;;
44764;SDS011;30484;52.382;5.260;2023-08-07T13:36:23;8.98;;;1.90;;
44764;SDS011;30484;52.382;5.260;2023-08-07T13:39:00;5.32;;;1.75;;
44764;SDS011;30484;52.382;5.260;2023-08-07T13:41:33;7.82;;;2.00;;
44764;SDS011;30484;52.382;5.260;2023-08-07T13:44:02;7.63;;;2.00;;
44764;SDS011;30484;52.382;5.260;2023-08-07T13:46:30;8.82;;;2.05;;
44764;SDS011;30484;52.382;5.260;2023-08-07T13:48:58;7.07;;;1.80;;
44764;SDS011;30484;52.382;5.260;2023-08-07T13:51:28;9.48;;;1.77;;
44764;SDS011;30484;52.382;5.260;2023-08-07T13:53:57;9.68;;;2.17;;
44764;SDS011;30484;52.382;5.260;2023-08-07T13:56:25;6.07;;;1.85;;
44764;SDS011;30484;52.382;5.260;2023-08-07T13:58:54;5.03;;;1.40;;
44764;SDS011;30484;52.382;5.260;2023-08-07T14:01:23;5.90;;;1.80;;
44764;SDS011;30484;52.382;5.260;2023-08-07T14:03:51;4.25;;;1.77;;
44764;SDS011;30484;52.382;5.260;2023-08-07T14:06:21;5.72;;;2.03;;
44764;SDS011;30484;52.382;5.260;2023-08-07T14:08:52;5.97;;;1.98;;
44764;SDS011;30484;52.382;5.260;2023-08-07T14:11:32;10.48;;;2.10;;
44764;SDS011;30484;52.382;5.260;2023-08-07T14:14:01;4.30;;;1.70;;
44764;SDS011;30484;52.382;5.260;2023-08-07T14:16:30;5.10;;;2.10;;
44764;SDS011;30484;52.382;5.260;2023-08-07T14:18:59;4.70;;;1.83;;
44764;SDS011;30484;52.382;5.260;2023-08-07T14:21:27;7.22;;;1.83;;
44764;SDS011;30484;52.382;5.260;2023-08-07T14:23:57;8.68;;;2.15;;
44764;SDS011;30484;52.382;5.260;2023-08-07T14:26:26;4.75;;;2.00;;
44764;SDS011;30484;52.382;5.260;2023-08-07T14:28:54;7.15;;;1.90;;
44764;SDS011;30484;52.382;5.260;2023-08-07T14:31:22;6.03;;;2.00;;
44764;SDS011;30484;52.382;5.260;2023-08-07T14:33:51;7.80;;;1.92;;
44764;SDS011;30484;52.382;5.260;2023-08-07T14:36:26;8.90;;;1.80;;
44764;SDS011;30484;52.382;5.260;2023-08-07T14:38:54;6.47;;;2.05;;
44764;SDS011;30484;52.382;5.260;2023-08-07T14:41:24;7.80;;;1.98;;
44764;SDS011;30484;52.382;5.260;2023-08-07T14:43:53;5.95;;;2.03;;
44764;SDS011;30484;52.382;5.260;2023-08-07T14:46:22;10.85;;;2.08;;
44764;SDS011;30484;52.382;5.260;2023-08-07T14:48:51;8.93;;;2.03;;
44764;SDS011;30484;52.382;5.260;2023-08-07T14:51:19;5.97;;;1.92;;
44764;SDS011;30484;52.382;5.260;2023-08-07T14:53:51;5.97;;;2.15;;
44764;SDS011;30484;52.382;5.260;2023-08-07T14:56:20;5.30;;;1.80;;
44764;SDS011;30484;52.382;5.260;2023-08-07T14:58:50;6.18;;;2.00;;
44764;SDS011;30484;52.382;5.260;2023-08-07T15:01:18;6.43;;;2.03;;